Time;durP1;ratioP1;P1;durP2;ratioP2;P2;SDS_P1;SDS_P2;PMS_P1;PMS_P2;Temp;Humidity;BMP_temperature;BMP_pressure;BME280_temperature;BME280_humidity;BME280_pressure;Samples;Min_cycle;Max_cycle;Signal;HPM_P1;HPM_P2
2021/12/27 00:00:02;;;;;;;20.55;9.60;;;0.00;99.90;;;;;;4953372;29;20043;-78
2021/12/27 00:02:27;;;;;;;21.48;9.43;;;0.00;99.90;;;;;;4954301;29;20419;-78
2021/12/27 00:04:53;;;;;;;25.45;10.98;;;0.00;99.90;;;;;;4953520;29;20134;-77
2021/12/27 00:07:18;;;;;;;22.15;10.20;;;0.00;99.90;;;;;;4954491;28;20039;-77
2021/12/27 00:09:44;;;;;;;22.42;10.80;;;0.00;99.90;;;;;;4957085;29;20054;-78
2021/12/27 00:12:10;;;;;;;24.08;9.93;;;0.10;99.90;;;;;;4957209;29;20186;-78
2021/12/27 00:14:35;;;;;;;19.33;9.88;;;0.10;99.90;;;;;;4958664;29;20032;-78
2021/12/27 00:17:01;;;;;;;22.92;11.00;;;0.10;99.90;;;;;;4956595;28;20071;-78
2021/12/27 00:19:26;;;;;;;22.15;10.88;;;0.10;99.90;;;;;;4941412;29;20125;-77
2021/12/27 00:21:53;;;;;;;21.52;10.07;;;0.10;99.90;;;;;;4941856;29;20035;-78
2021/12/27 00:24:18;;;;;;;18.75;9.05;;;0.10;99.90;;;;;;4957949;29;20058;-78
2021/12/27 00:26:48;;;;;;;22.58;10.05;;;0.10;99.90;;;;;;4956920;28;20035;-78
2021/12/27 00:29:15;;;;;;;20.85;10.10;;;0.20;99.90;;;;;;4957022;29;20047;-78
2021/12/27 00:31:41;;;;;;;23.67;10.32;;;0.10;99.90;;;;;;4956791;29;20622;-78
2021/12/27 00:34:06;;;;;;;22.02;9.85;;;0.20;99.90;;;;;;4957044;29;20042;-78
2021/12/27 00:36:32;;;;;;;24.00;10.68;;;0.20;99.90;;;;;;4956255;28;20114;-78
2021/12/27 00:38:57;;;;;;;24.58;11.85;;;0.20;99.90;;;;;;4940857;29;20416;-77
2021/12/27 00:41:23;;;;;;;22.00;10.43;;;0.20;99.90;;;;;;4956804;29;20054;-78
2021/12/27 00:43:48;;;;;;;23.73;10.85;;;0.20;99.90;;;;;;4940904;29;20036;-78
2021/12/27 00:46:14;;;;;;;21.60;10.75;;;0.20;99.90;;;;;;4956630;29;20050;-78
2021/12/27 00:48:40;;;;;;;20.75;10.13;;;0.20;99.90;;;;;;4957561;28;20054;-78
2021/12/27 00:51:05;;;;;;;24.30;10.65;;;0.20;99.90;;;;;;4957022;29;20047;-78
2021/12/27 00:53:31;;;;;;;24.20;10.88;;;0.20;99.90;;;;;;4956747;29;20043;-78
2021/12/27 00:55:56;;;;;;;20.40;10.27;;;0.30;99.90;;;;;;4940431;29;20129;-78
2021/12/27 00:58:22;;;;;;;25.15;11.05;;;0.20;99.90;;;;;;4940496;29;20043;-78
2021/12/27 01:00:48;;;;;;;19.95;10.23;;;0.30;99.90;;;;;;4956295;29;20047;-78
2021/12/27 01:03:14;;;;;;;19.30;10.57;;;0.20;99.90;;;;;;4940753;29;20070;-77
2021/12/27 01:05:39;;;;;;;22.63;10.68;;;0.30;99.90;;;;;;4940050;29;20039;-78
2021/12/27 01:08:06;;;;;;;27.70;10.95;;;0.20;99.90;;;;;;4955839;28;20044;-78
2021/12/27 01:11:00;;;;;;;19.35;9.95;;;0.20;99.90;;;;;;4957281;29;20040;-78
2021/12/27 01:13:59;;;;;;;27.25;11.68;;;0.30;99.90;;;;;;4956328;29;20086;-77
2021/12/27 01:16:14;;;;;;;25.00;10.60;;;0.30;99.90;;;;;;4956028;29;20101;-77
2021/12/27 01:18:47;;;;;;;22.08;10.77;;;0.30;99.90;;;;;;4955825;28;20044;-78
2021/12/27 01:21:19;;;;;;;23.00;11.60;;;0.30;99.90;;;;;;4957002;29;20047;-78
2021/12/27 01:23:45;;;;;;;25.38;10.52;;;0.30;99.90;;;;;;4956559;29;20043;-78
2021/12/27 01:26:11;;;;;;;22.05;9.90;;;0.30;99.90;;;;;;4955489;29;20484;-78
2021/12/27 01:28:37;;;;;;;22.30;10.52;;;0.30;99.90;;;;;;4954877;28;20053;-78
2021/12/27 01:31:04;;;;;;;23.42;10.98;;;0.30;99.90;;;;;;4954802;29;20043;-78
2021/12/27 01:33:31;;;;;;;23.08;10.48;;;0.30;99.90;;;;;;4954856;29;20047;-78
2021/12/27 01:35:57;;;;;;;27.90;12.30;;;0.20;99.90;;;;;;4938669;29;20562;-78
2021/12/27 01:38:23;;;;;;;20.77;11.00;;;0.30;99.90;;;;;;4954614;28;20503;-78
2021/12/27 01:40:51;;;;;;;27.38;11.55;;;0.30;99.90;;;;;;4954759;29;20132;-78
2021/12/27 01:43:24;;;;;;;26.65;11.27;;;0.30;99.90;;;;;;4954630;29;20049;-78
2021/12/27 01:46:01;;;;;;;21.95;10.73;;;0.30;99.90;;;;;;4954297;29;20093;-78
2021/12/27 01:48:31;;;;;;;28.15;12.73;;;0.30;99.90;;;;;;4954653;28;20050;-78
2021/12/27 01:51:00;;;;;;;25.35;12.40;;;0.30;99.90;;;;;;4954672;29;20654;-78
2021/12/27 01:53:27;;;;;;;27.60;11.98;;;0.30;99.90;;;;;;4954717;29;20559;-78
2021/12/27 01:55:55;;;;;;;23.85;11.27;;;0.30;99.90;;;;;;4955440;28;20506;-78
2021/12/27 01:58:22;;;;;;;23.70;10.48;;;0.30;99.90;;;;;;4954405;28;20083;-78
2021/12/27 02:00:51;;;;;;;23.55;12.40;;;0.30;99.90;;;;;;4955021;29;20050;-78
2021/12/27 02:03:20;;;;;;;23.17;12.02;;;0.30;99.90;;;;;;4955099;29;20692;-78
2021/12/27 02:05:46;;;;;;;24.05;11.65;;;0.30;99.90;;;;;;4939016;29;20047;-78
2021/12/27 02:08:12;;;;;;;29.10;12.55;;;0.30;99.90;;;;;;4954879;28;20043;-78
2021/12/27 02:10:39;;;;;;;22.48;11.43;;;0.30;99.90;;;;;;4939274;29;20403;-78
2021/12/27 02:13:05;;;;;;;20.80;10.65;;;0.30;99.90;;;;;;4954678;29;20038;-78
2021/12/27 02:15:31;;;;;;;25.23;11.57;;;0.30;99.90;;;;;;4938680;29;20094;-78
2021/12/27 02:17:57;;;;;;;26.95;11.77;;;0.30;99.90;;;;;;4954592;28;20115;-78
2021/12/27 02:20:29;;;;;;;27.15;12.10;;;0.30;99.90;;;;;;4954268;29;20039;-78
2021/12/27 02:23:00;;;;;;;24.08;10.63;;;0.30;99.90;;;;;;4955979;29;20048;-78
2021/12/27 02:25:28;;;;;;;21.90;11.10;;;0.30;99.90;;;;;;4954452;29;20043;-78
2021/12/27 02:27:54;;;;;;;25.48;12.35;;;0.40;99.90;;;;;;4954368;28;20393;-78
2021/12/27 02:30:22;;;;;;;22.15;11.65;;;0.30;99.90;;;;;;4937955;29;20174;-77
2021/12/27 02:32:51;;;;;;;24.95;12.50;;;0.40;99.90;;;;;;4955741;29;20047;-77
2021/12/27 02:35:20;;;;;;;27.85;10.98;;;0.40;99.90;;;;;;4938280;29;20485;-78
2021/12/27 02:37:46;;;;;;;25.65;12.25;;;0.30;99.90;;;;;;4954469;28;20137;-78
2021/12/27 02:40:12;;;;;;;22.83;12.10;;;0.40;99.90;;;;;;4954542;29;20507;-78
2021/12/27 02:42:53;;;;;;;30.33;12.85;;;0.40;99.90;;;;;;4954147;29;20039;-78
2021/12/27 02:45:19;;;;;;;29.75;11.43;;;0.40;99.90;;;;;;4954357;29;20047;-78
2021/12/27 02:47:44;;;;;;;30.63;12.95;;;0.30;99.90;;;;;;4954245;28;20043;-78
2021/12/27 02:50:10;;;;;;;26.63;12.02;;;0.30;99.90;;;;;;4938008;29;20039;-78
2021/12/27 02:52:36;;;;;;;23.40;11.77;;;0.40;99.90;;;;;;4954202;29;20105;-78
2021/12/27 02:55:01;;;;;;;25.50;12.35;;;0.30;99.90;;;;;;4953619;29;20039;-78
2021/12/27 02:57:27;;;;;;;26.17;12.23;;;0.40;99.90;;;;;;4953519;28;20519;-78
2021/12/27 02:59:53;;;;;;;24.52;12.07;;;0.40;99.90;;;;;;4953621;29;20099;-78
2021/12/27 03:02:19;;;;;;;29.48;13.27;;;0.40;99.90;;;;;;4953624;29;20496;-78
2021/12/27 03:04:46;;;;;;;28.98;12.63;;;0.40;99.90;;;;;;4954014;29;20091;-78
2021/12/27 03:07:11;;;;;;;28.10;12.30;;;0.40;99.90;;;;;;4954081;28;20098;-78
2021/12/27 03:09:38;;;;;;;28.52;12.05;;;0.40;99.90;;;;;;4953756;29;20051;-78
2021/12/27 03:12:09;;;;;;;30.27;12.60;;;0.40;99.90;;;;;;4954090;29;20095;-78
2021/12/27 03:14:34;;;;;;;26.17;13.52;;;0.40;99.90;;;;;;4953704;29;20530;-78
2021/12/27 03:17:00;;;;;;;25.52;12.05;;;0.40;99.90;;;;;;4937890;29;20075;-78
2021/12/27 03:19:25;;;;;;;25.55;11.52;;;0.40;99.90;;;;;;4953827;29;20138;-78
2021/12/27 03:21:51;;;;;;;26.55;12.70;;;0.40;99.90;;;;;;4954126;29;20127;-78
2021/12/27 03:24:16;;;;;;;26.23;12.63;;;0.40;99.90;;;;;;4937742;29;20043;-78
2021/12/27 03:26:42;;;;;;;35.80;13.50;;;0.40;99.90;;;;;;4937308;28;20042;-78
2021/12/27 03:29:07;;;;;;;23.83;12.10;;;0.40;99.90;;;;;;4954120;29;20051;-77
2021/12/27 03:31:36;;;;;;;29.15;13.88;;;0.50;99.90;;;;;;4954290;29;20050;-78
2021/12/27 03:34:02;;;;;;;26.85;12.25;;;0.40;99.90;;;;;;4953883;29;20042;-78
2021/12/27 03:36:28;;;;;;;25.95;13.13;;;0.50;99.90;;;;;;4953480;29;20438;-78
2021/12/27 03:38:54;;;;;;;27.23;12.65;;;0.50;99.90;;;;;;4955189;28;20094;-77
2021/12/27 03:41:22;;;;;;;28.38;12.27;;;0.50;99.90;;;;;;4953575;29;20035;-78
2021/12/27 03:43:48;;;;;;;28.02;11.95;;;0.50;99.90;;;;;;4953105;29;20047;-78
2021/12/27 03:46:14;;;;;;;28.38;12.07;;;0.50;99.90;;;;;;4953072;29;20094;-78
2021/12/27 03:48:40;;;;;;;32.88;13.48;;;0.50;99.90;;;;;;4953279;28;20047;-78
2021/12/27 03:51:06;;;;;;;28.92;13.38;;;0.50;99.90;;;;;;4953140;29;20127;-78
2021/12/27 03:53:34;;;;;;;26.35;11.15;;;0.50;99.90;;;;;;4953509;29;20051;-78
2021/12/27 03:55:59;;;;;;;27.10;12.10;;;0.50;99.90;;;;;;4953225;29;20055;-78
2021/12/27 03:58:33;;;;;;;27.45;12.93;;;0.50;99.90;;;;;;4937395;29;20047;-78
2021/12/27 04:01:17;;;;;;;24.48;11.52;;;0.50;99.90;;;;;;4955254;29;20484;-78
2021/12/27 04:03:44;;;;;;;25.10;11.50;;;0.50;99.90;;;;;;4953259;29;20067;-78
2021/12/27 04:06:12;;;;;;;24.65;12.05;;;0.50;99.90;;;;;;4937670;29;20052;-78
2021/12/27 04:08:37;;;;;;;25.92;11.88;;;0.50;99.90;;;;;;4954286;28;20051;-78
2021/12/27 04:11:03;;;;;;;24.77;12.32;;;0.50;99.90;;;;;;4937916;29;20046;-78
2021/12/27 04:13:29;;;;;;;30.58;12.88;;;0.50;99.90;;;;;;4937333;29;20126;-78
2021/12/27 04:15:54;;;;;;;26.27;11.50;;;0.50;99.90;;;;;;4954225;29;20043;-78
2021/12/27 04:18:20;;;;;;;23.88;12.75;;;0.50;99.90;;;;;;4953522;28;20098;-78
2021/12/27 04:20:46;;;;;;;32.75;14.38;;;0.50;99.90;;;;;;4937918;29;20533;-78
2021/12/27 04:23:12;;;;;;;29.10;12.32;;;0.40;99.90;;;;;;4937222;29;20040;-78
2021/12/27 04:25:38;;;;;;;30.23;13.45;;;0.50;99.90;;;;;;4952897;29;20050;-78
2021/12/27 04:28:04;;;;;;;28.80;12.95;;;0.50;99.90;;;;;;4953910;28;20050;-78
2021/12/27 04:30:30;;;;;;;30.17;13.15;;;0.50;99.90;;;;;;4952770;29;20047;-78
2021/12/27 04:32:55;;;;;;;32.22;12.90;;;0.40;99.90;;;;;;4952830;29;20047;-78
2021/12/27 04:35:21;;;;;;;32.55;13.77;;;0.40;99.90;;;;;;4952935;29;20039;-78
2021/12/27 04:37:49;;;;;;;29.25;13.68;;;0.50;99.90;;;;;;4953290;28;20408;-78
2021/12/27 04:40:18;;;;;;;33.70;15.95;;;0.50;99.90;;;;;;4937023;29;20035;-78
2021/12/27 04:42:47;;;;;;;28.75;12.55;;;0.40;99.90;;;;;;4937118;29;20043;-78
2021/12/27 04:45:14;;;;;;;32.45;14.30;;;0.50;99.90;;;;;;4936787;29;20086;-78
2021/12/27 04:47:41;;;;;;;32.40;13.77;;;0.40;99.90;;;;;;4953018;28;20522;-79
2021/12/27 04:50:07;;;;;;;30.45;13.88;;;0.40;99.90;;;;;;4952884;29;20047;-79
2021/12/27 04:52:32;;;;;;;30.05;14.10;;;0.50;99.90;;;;;;4952691;28;20491;-78
2021/12/27 04:54:58;;;;;;;29.85;13.25;;;0.50;99.90;;;;;;4940085;29;20065;-78
2021/12/27 04:57:23;;;;;;;30.50;13.63;;;0.50;99.90;;;;;;4955958;28;20043;-78
2021/12/27 04:59:49;;;;;;;27.70;12.48;;;0.50;99.90;;;;;;4956211;29;20039;-80
2021/12/27 05:02:14;;;;;;;27.92;14.00;;;0.50;99.90;;;;;;4956650;29;20035;-80
2021/12/27 05:04:40;;;;;;;26.75;13.60;;;0.50;99.90;;;;;;4956957;29;20035;-80
2021/12/27 05:07:05;;;;;;;29.67;13.13;;;0.50;99.90;;;;;;4956653;28;20087;-80
2021/12/27 05:09:31;;;;;;;29.30;14.23;;;0.50;99.90;;;;;;4956427;28;20074;-80
2021/12/27 05:11:56;;;;;;;34.10;13.70;;;0.50;99.90;;;;;;4956605;29;20047;-80
2021/12/27 05:14:22;;;;;;;28.65;14.07;;;0.50;99.90;;;;;;4956711;29;20058;-80
2021/12/27 05:16:48;;;;;;;33.63;14.20;;;0.50;99.90;;;;;;4940086;28;20058;-80
2021/12/27 05:19:14;;;;;;;29.13;13.30;;;0.50;99.90;;;;;;4956385;29;20090;-80
2021/12/27 05:21:40;;;;;;;30.95;14.25;;;0.50;99.90;;;;;;4956582;29;20151;-80
2021/12/27 05:24:07;;;;;;;27.95;13.00;;;0.50;99.90;;;;;;4956173;29;20591;-80
2021/12/27 05:26:32;;;;;;;36.05;14.13;;;0.50;99.90;;;;;;4940462;29;20071;-80
2021/12/27 05:28:58;;;;;;;34.92;14.48;;;0.50;99.90;;;;;;4956885;28;20083;-80
2021/12/27 05:31:23;;;;;;;30.40;13.35;;;0.50;99.90;;;;;;4956193;29;20043;-80
2021/12/27 05:33:49;;;;;;;32.72;14.10;;;0.50;99.90;;;;;;4956360;29;20055;-80
2021/12/27 05:36:15;;;;;;;34.33;13.88;;;0.50;99.90;;;;;;4939932;29;20122;-80
2021/12/27 05:38:40;;;;;;;34.50;14.52;;;0.50;99.90;;;;;;4955703;28;20117;-80
2021/12/27 05:41:06;;;;;;;29.83;14.52;;;0.50;99.90;;;;;;4940529;29;20046;-80
2021/12/27 05:43:32;;;;;;;31.48;14.45;;;0.50;99.90;;;;;;4956112;29;20075;-80
2021/12/27 05:45:58;;;;;;;36.22;14.20;;;0.50;99.90;;;;;;4939920;29;20047;-80
2021/12/27 05:48:24;;;;;;;34.33;14.23;;;0.50;99.90;;;;;;4955927;28;20051;-80
2021/12/27 05:50:49;;;;;;;35.55;15.38;;;0.50;99.90;;;;;;4939994;29;20125;-80
2021/12/27 05:53:16;;;;;;;31.23;13.70;;;0.50;99.90;;;;;;4956422;29;20404;-80
2021/12/27 05:55:43;;;;;;;35.33;14.38;;;0.50;99.90;;;;;;4957594;29;20043;-80
2021/12/27 05:58:08;;;;;;;33.58;13.65;;;0.50;99.90;;;;;;4956146;28;20538;-81
2021/12/27 06:00:34;;;;;;;31.83;14.45;;;0.50;99.90;;;;;;4939776;29;20047;-80
2021/12/27 06:03:00;;;;;;;34.75;13.95;;;0.60;99.90;;;;;;4955713;29;20043;-81
2021/12/27 06:05:25;;;;;;;33.10;14.82;;;0.50;99.90;;;;;;4954431;28;20039;-80
2021/12/27 06:07:51;;;;;;;29.13;13.82;;;0.60;99.90;;;;;;4939653;29;20074;-80
2021/12/27 06:10:18;;;;;;;33.75;14.93;;;0.60;99.90;;;;;;4956020;29;20047;-80
2021/12/27 06:12:44;;;;;;;33.67;15.98;;;0.60;99.90;;;;;;4956062;29;20070;-80
2021/12/27 06:15:10;;;;;;;31.02;13.93;;;0.60;99.90;;;;;;4956074;29;20058;-80
2021/12/27 06:17:37;;;;;;;31.90;14.27;;;0.60;99.90;;;;;;4955509;28;20403;-80
2021/12/27 06:20:09;;;;;;;35.72;15.23;;;0.60;99.90;;;;;;4956987;29;20101;-80
2021/12/27 06:22:37;;;;;;;29.83;13.68;;;0.60;99.90;;;;;;4939694;29;20046;-80
2021/12/27 06:25:03;;;;;;;29.63;14.45;;;0.60;99.90;;;;;;4954821;29;20373;-81
2021/12/27 06:27:31;;;;;;;31.33;14.93;;;0.60;99.90;;;;;;4954759;28;20154;-80
2021/12/27 06:29:57;;;;;;;33.20;14.60;;;0.60;99.90;;;;;;4954683;29;20106;-80
2021/12/27 06:32:23;;;;;;;38.95;14.70;;;0.70;99.90;;;;;;4954380;29;20051;-80
2021/12/27 06:34:49;;;;;;;34.47;14.63;;;0.70;99.90;;;;;;4954041;29;20070;-80
2021/12/27 06:37:14;;;;;;;33.08;14.48;;;0.70;99.90;;;;;;4938000;29;20082;-80
2021/12/27 06:39:40;;;;;;;32.90;13.88;;;0.70;99.90;;;;;;4955588;29;20039;-80
2021/12/27 06:42:06;;;;;;;34.03;14.15;;;0.70;99.90;;;;;;4955454;29;20043;-80
2021/12/27 06:44:32;;;;;;;32.22;14.80;;;0.70;99.90;;;;;;4954181;29;20524;-81
2021/12/27 06:46:59;;;;;;;39.00;14.82;;;0.70;99.90;;;;;;4954678;28;20065;-79
2021/12/27 06:49:27;;;;;;;35.80;15.00;;;0.80;99.90;;;;;;4954331;29;20491;-79
2021/12/27 06:51:53;;;;;;;34.60;13.85;;;0.80;99.90;;;;;;4938160;29;20050;-78
2021/12/27 06:54:19;;;;;;;42.45;14.13;;;0.80;99.90;;;;;;4954316;29;20130;-79
2021/12/27 06:56:45;;;;;;;37.75;15.30;;;0.80;99.90;;;;;;4938124;28;20047;-79
2021/12/27 06:59:10;;;;;;;31.30;13.60;;;0.80;99.90;;;;;;4938340;29;20126;-79
2021/12/27 07:01:36;;;;;;;35.05;14.85;;;0.80;99.90;;;;;;4938615;29;20066;-79
2021/12/27 07:04:01;;;;;;;32.42;14.43;;;0.80;99.90;;;;;;4954694;29;20118;-79
2021/12/27 07:06:27;;;;;;;39.97;16.08;;;0.80;99.90;;;;;;4954704;29;20110;-79
2021/12/27 07:08:52;;;;;;;39.30;14.40;;;0.80;99.90;;;;;;4956589;28;20043;-79
2021/12/27 07:11:18;;;;;;;36.75;13.85;;;0.80;99.90;;;;;;4956574;29;20495;-79
2021/12/27 07:13:43;;;;;;;38.00;15.02;;;0.80;99.90;;;;;;4957204;29;20513;-79
2021/12/27 07:16:09;;;;;;;37.75;14.38;;;0.80;99.90;;;;;;4939160;29;20454;-79
2021/12/27 07:18:34;;;;;;;37.63;14.65;;;0.90;99.90;;;;;;4955250;28;20385;-79
2021/12/27 07:21:00;;;;;;;32.30;14.05;;;0.80;99.90;;;;;;4953801;29;20094;-79
2021/12/27 07:23:26;;;;;;;36.83;14.38;;;0.80;99.90;;;;;;4937989;29;20089;-79
2021/12/27 07:25:51;;;;;;;36.85;13.95;;;0.80;99.90;;;;;;4938454;29;20502;-79
2021/12/27 07:28:17;;;;;;;38.25;14.43;;;0.80;99.90;;;;;;4954335;28;20050;-79
2021/12/27 07:30:43;;;;;;;37.63;14.60;;;0.90;99.90;;;;;;4956375;29;20038;-80
2021/12/27 07:33:08;;;;;;;34.50;14.38;;;0.90;99.90;;;;;;4955349;29;20054;-79
2021/12/27 07:35:34;;;;;;;36.92;15.38;;;0.90;99.90;;;;;;4955799;29;20031;-79
2021/12/27 07:38:01;;;;;;;47.95;16.48;;;0.90;99.90;;;;;;4955798;28;20046;-79
2021/12/27 07:40:27;;;;;;;34.22;14.63;;;0.90;99.90;;;;;;4956652;28;20044;-80
2021/12/27 07:42:53;;;;;;;37.80;15.73;;;0.90;99.90;;;;;;4939228;29;20415;-79
2021/12/27 07:45:18;;;;;;;43.35;16.23;;;0.90;99.90;;;;;;4953855;29;20063;-80
2021/12/27 07:47:44;;;;;;;38.80;15.65;;;0.90;99.90;;;;;;4938610;29;20093;-80
2021/12/27 07:50:10;;;;;;;47.40;16.13;;;0.90;99.90;;;;;;4954461;29;20039;-80
2021/12/27 07:52:35;;;;;;;46.78;15.38;;;1.00;99.90;;;;;;4938623;29;20046;-80
2021/12/27 07:55:01;;;;;;;58.92;16.83;;;1.00;99.90;;;;;;4954490;29;20049;-79
2021/12/27 07:57:27;;;;;;;45.53;15.38;;;0.90;99.90;;;;;;4939561;29;20039;-79
2021/12/27 07:59:53;;;;;;;51.88;16.80;;;0.90;99.90;;;;;;4957633;29;20051;-79
2021/12/27 08:02:19;;;;;;;54.20;17.85;;;1.00;99.90;;;;;;4959395;29;20050;-79
2021/12/27 08:04:44;;;;;;;54.83;16.35;;;1.00;99.90;;;;;;4962093;29;20109;-79
2021/12/27 08:07:10;;;;;;;57.13;17.85;;;1.00;99.90;;;;;;4960988;28;20031;-80
2021/12/27 08:09:36;;;;;;;53.00;17.48;;;1.00;99.90;;;;;;4960400;29;20657;-80
2021/12/27 08:12:03;;;;;;;59.90;17.25;;;0.90;99.90;;;;;;4955897;29;20051;-81
2021/12/27 08:14:28;;;;;;;54.03;16.33;;;1.00;99.90;;;;;;4938901;29;20043;-81
2021/12/27 08:16:54;;;;;;;59.03;17.25;;;1.00;99.90;;;;;;4953800;28;20047;-81
2021/12/27 08:19:19;;;;;;;56.30;17.40;;;1.00;99.90;;;;;;4939104;29;20047;-81
2021/12/27 08:21:45;;;;;;;43.83;15.52;;;1.00;99.90;;;;;;4940632;29;20125;-81
2021/12/27 08:24:11;;;;;;;56.83;17.48;;;1.00;99.90;;;;;;4955095;29;20043;-81
2021/12/27 08:26:37;;;;;;;49.78;14.82;;;1.00;99.90;;;;;;4941343;28;20035;-83
2021/12/27 08:29:06;;;;;;;55.35;18.38;;;1.10;99.90;;;;;;4943507;29;20085;-83
2021/12/27 08:31:32;;;;;;;55.15;19.02;;;1.10;99.90;;;;;;4943952;29;20086;-83
2021/12/27 08:33:57;;;;;;;54.08;17.17;;;1.10;99.90;;;;;;4943457;29;20054;-82
2021/12/27 08:36:26;;;;;;;60.42;19.55;;;1.10;99.90;;;;;;4946003;29;20039;-83
2021/12/27 08:38:52;;;;;;;69.43;17.02;;;1.10;99.90;;;;;;4944646;29;20043;-83
2021/12/27 08:41:18;;;;;;;55.25;17.77;;;1.10;99.90;;;;;;4945722;29;20039;-83
2021/12/27 08:43:45;;;;;;;59.97;16.98;;;1.20;99.90;;;;;;4943179;29;20074;-83
2021/12/27 08:46:11;;;;;;;54.63;17.33;;;1.10;99.90;;;;;;4943612;29;20493;-83
2021/12/27 08:48:37;;;;;;;47.85;16.40;;;1.20;99.90;;;;;;4944878;29;20031;-83
2021/12/27 08:51:03;;;;;;;64.95;19.13;;;1.20;99.90;;;;;;4946458;29;20035;-83
2021/12/27 08:53:29;;;;;;;57.30;17.00;;;1.10;99.90;;;;;;4951263;29;20049;-82
2021/12/27 08:55:55;;;;;;;56.80;18.75;;;1.30;99.90;;;;;;4947386;29;20039;-83
2021/12/27 08:58:20;;;;;;;61.97;18.40;;;1.30;99.90;;;;;;4949275;29;20127;-83
2021/12/27 09:00:46;;;;;;;67.47;18.50;;;1.30;99.90;;;;;;4950182;29;20035;-83
2021/12/27 09:03:12;;;;;;;56.30;17.25;;;1.30;99.90;;;;;;4964109;29;20120;-83
2021/12/27 09:05:39;;;;;;;53.15;17.05;;;1.30;99.90;;;;;;4965412;29;20054;-83
2021/12/27 09:08:05;;;;;;;69.65;18.27;;;1.40;99.90;;;;;;4946374;29;20385;-86
2021/12/27 09:10:31;;;;;;;66.45;17.80;;;1.40;99.90;;;;;;4955517;29;20094;-86
2021/12/27 09:12:56;;;;;;;75.63;19.88;;;1.40;99.90;;;;;;4955527;29;20043;-85
2021/12/27 09:15:22;;;;;;;68.63;17.58;;;1.40;99.90;;;;;;4939664;29;20491;-85
2021/12/27 09:17:48;;;;;;;75.63;18.15;;;1.40;99.90;;;;;;4939661;29;20707;-84
2021/12/27 09:20:15;;;;;;;61.60;16.77;;;1.50;99.90;;;;;;4955291;29;20043;-85
2021/12/27 09:22:41;;;;;;;56.55;17.55;;;1.50;99.90;;;;;;4939154;29;20537;-84
2021/12/27 09:25:08;;;;;;;70.55;19.17;;;1.50;99.90;;;;;;4955371;29;20043;-86
2021/12/27 09:27:33;;;;;;;78.13;17.70;;;1.50;99.90;;;;;;4939306;29;20031;-86
2021/12/27 09:30:00;;;;;;;75.70;19.38;;;1.50;99.90;;;;;;4955177;29;20050;-86
2021/12/27 09:32:26;;;;;;;85.15;19.40;;;1.50;99.90;;;;;;4955195;29;20043;-85
2021/12/27 09:34:51;;;;;;;68.30;17.58;;;1.60;99.90;;;;;;4938983;29;20098;-86
2021/12/27 09:37:17;;;;;;;71.80;17.40;;;1.60;99.90;;;;;;4938753;29;20381;-86
2021/12/27 09:39:42;;;;;;;80.45;18.58;;;1.60;99.90;;;;;;4939052;29;20529;-86
2021/12/27 09:42:08;;;;;;;83.95;21.67;;;1.60;99.90;;;;;;4938811;29;20059;-85
2021/12/27 09:44:34;;;;;;;74.72;19.85;;;1.70;99.90;;;;;;4954999;29;20043;-83
2021/12/27 09:46:59;;;;;;;77.53;19.92;;;1.70;99.90;;;;;;4959531;28;20035;-83
2021/12/27 09:49:29;;;;;;;74.65;18.83;;;1.70;99.90;;;;;;4961268;29;20500;-83
2021/12/27 09:51:57;;;;;;;96.50;21.40;;;1.70;99.90;;;;;;4962049;29;20043;-83
2021/12/27 09:54:27;;;;;;;75.18;21.42;;;1.80;99.90;;;;;;4962176;29;20058;-83
2021/12/27 09:56:53;;;;;;;72.10;20.00;;;1.80;99.90;;;;;;4945028;28;20550;-83
2021/12/27 09:59:20;;;;;;;106.20;21.85;;;1.90;99.90;;;;;;4948186;29;20054;-83
2021/12/27 10:01:46;;;;;;;81.63;20.83;;;1.90;99.90;;;;;;4951088;29;20035;-83
2021/12/27 10:04:12;;;;;;;81.70;21.25;;;1.90;99.90;;;;;;4950656;29;20039;-83
2021/12/27 10:06:41;;;;;;;101.22;21.80;;;2.00;99.90;;;;;;4934789;28;20120;-83
2021/12/27 10:09:07;;;;;;;92.03;20.85;;;2.00;99.90;;;;;;4948024;29;20074;-82
2021/12/27 10:11:36;;;;;;;103.28;22.13;;;2.00;99.90;;;;;;4948874;29;20042;-82
2021/12/27 10:14:20;;;;;;;56.42;17.70;;;2.10;99.90;;;;;;4932491;29;20467;-83
2021/12/27 10:50:49;;;;;;;84.07;18.40;;;2.60;99.90;;;;;;5016176;28;20065;-81
2021/12/27 10:53:43;;;;;;;52.42;18.77;;;2.60;99.90;;;;;;5018199;28;20050;-81
2021/12/27 10:56:28;;;;;;;67.63;19.27;;;2.70;99.90;;;;;;4987693;28;20038;-81
2021/12/27 10:59:18;;;;;;;63.63;18.15;;;2.80;99.90;;;;;;4986026;28;20046;-81
2021/12/27 11:01:47;;;;;;;70.68;18.42;;;2.70;99.90;;;;;;5001087;28;20094;-81
2021/12/27 11:04:23;;;;;;;83.90;19.63;;;2.80;99.90;;;;;;4969514;28;20042;-80
2021/12/27 11:06:54;;;;;;;67.22;19.10;;;2.70;99.90;;;;;;4984287;28;20553;-80
2021/12/27 11:09:20;;;;;;;76.32;19.27;;;2.80;99.90;;;;;;5000992;28;20103;-80
2021/12/27 11:12:10;;;;;;;55.13;16.05;;;2.70;99.90;;;;;;4969474;28;20045;-81
2021/12/27 11:15:20;;;;;;;93.82;20.67;;;2.70;99.90;;;;;;4983974;28;20042;-80
2021/12/27 11:18:16;;;;;;;82.72;20.25;;;2.80;99.90;;;;;;4986658;28;20470;-81
2021/12/27 11:21:25;;;;;;;74.70;18.63;;;2.70;99.90;;;;;;4987193;28;20164;-81
2021/12/27 11:23:52;;;;;;;89.07;20.48;;;2.80;99.90;;;;;;4966541;28;20058;-81
2021/12/27 11:26:24;;;;;;;86.68;19.48;;;2.80;99.90;;;;;;4986107;28;20039;-81
2021/12/27 11:28:50;;;;;;;91.10;21.58;;;2.80;99.90;;;;;;4985077;28;20524;-81
2021/12/27 11:31:24;;;;;;;99.28;20.98;;;2.80;99.90;;;;;;4980990;28;20054;-78
2021/12/27 11:34:01;;;;;;;89.15;22.05;;;2.80;99.90;;;;;;4995706;28;20387;-79
2021/12/27 11:36:36;;;;;;;88.35;20.85;;;2.80;99.90;;;;;;4976962;28;20057;-78
2021/12/27 11:39:36;;;;;;;83.55;19.38;;;2.80;99.90;;;;;;4961492;28;20053;-78
2021/12/27 11:42:08;;;;;;;88.68;20.95;;;2.90;99.90;;;;;;4994734;28;20043;-78
2021/12/27 11:44:45;;;;;;;87.53;21.85;;;2.90;99.90;;;;;;4994402;28;20046;-78
2021/12/27 11:47:12;;;;;;;90.63;22.33;;;3.00;99.90;;;;;;4960504;28;20042;-78
2021/12/27 11:49:59;;;;;;;79.05;20.25;;;3.10;99.90;;;;;;4961172;28;20487;-78
2021/12/27 11:52:30;;;;;;;78.85;19.55;;;3.00;99.90;;;;;;4977473;28;20125;-78
2021/12/27 11:55:10;;;;;;;93.57;21.90;;;3.10;99.90;;;;;;4995605;28;20109;-78
2021/12/27 11:57:42;;;;;;;76.13;19.08;;;3.10;99.90;;;;;;4978023;28;20396;-78
2021/12/27 12:00:17;;;;;;;86.47;21.85;;;3.20;99.90;;;;;;4994189;28;20046;-78
2021/12/27 12:02:44;;;;;;;78.28;20.05;;;3.20;99.90;;;;;;4994535;28;20121;-78
2021/12/27 12:05:10;;;;;;;82.13;20.08;;;3.20;99.90;;;;;;4981597;28;20042;-78
2021/12/27 12:07:35;;;;;;;66.97;19.95;;;3.30;99.90;;;;;;4965541;28;20069;-78
2021/12/27 12:10:12;;;;;;;84.63;20.67;;;3.40;99.90;;;;;;4999236;28;20050;-78
2021/12/27 12:12:38;;;;;;;59.38;18.88;;;3.40;99.90;;;;;;5000560;28;20069;-78
2021/12/27 12:15:05;;;;;;;68.97;19.08;;;3.50;99.90;;;;;;4963697;28;20039;-79
2021/12/27 12:17:39;;;;;;;61.33;17.27;;;3.50;99.90;;;;;;4979664;28;20099;-79
2021/12/27 12:20:07;;;;;;;65.10;19.95;;;3.40;99.90;;;;;;4995647;28;20125;-79
2021/12/27 12:22:36;;;;;;;71.60;18.90;;;3.40;99.90;;;;;;4963224;28;20054;-79
2021/12/27 12:25:20;;;;;;;67.57;19.73;;;3.40;99.90;;;;;;4979318;28;20057;-78
2021/12/27 12:27:51;;;;;;;55.97;17.90;;;3.40;99.90;;;;;;4979475;28;20038;-79
2021/12/27 12:30:16;;;;;;;58.72;17.00;;;3.50;99.90;;;;;;4963149;28;20046;-79
2021/12/27 12:33:00;;;;;;;63.42;20.42;;;3.50;99.90;;;;;;4980413;28;20042;-78
2021/12/27 12:35:32;;;;;;;60.38;18.88;;;3.60;99.90;;;;;;4978969;28;20042;-79
2021/12/27 12:38:20;;;;;;;64.28;19.83;;;3.70;99.90;;;;;;4995513;28;20499;-79
2021/12/27 12:40:57;;;;;;;75.38;20.48;;;3.70;99.90;;;;;;4979469;28;20046;-79
2021/12/27 12:43:38;;;;;;;56.17;18.00;;;3.70;99.90;;;;;;4980452;28;20034;-79
2021/12/27 12:46:26;;;;;;;58.00;18.38;;;3.80;99.90;;;;;;4980951;28;20042;-79
2021/12/27 12:48:56;;;;;;;58.03;19.20;;;3.80;99.90;;;;;;4979694;28;20078;-79
2021/12/27 12:51:34;;;;;;;56.53;17.25;;;3.80;99.90;;;;;;4979552;28;20042;-79
2021/12/27 12:53:59;;;;;;;51.22;18.08;;;3.70;99.90;;;;;;4979751;28;20498;-79
2021/12/27 12:56:31;;;;;;;46.10;17.60;;;3.70;99.90;;;;;;4979287;28;20056;-79
2021/12/27 12:58:57;;;;;;;58.00;18.67;;;3.60;99.90;;;;;;4979369;28;20458;-79
2021/12/27 13:01:22;;;;;;;55.80;19.08;;;3.60;99.90;;;;;;4965591;28;20046;-80
2021/12/27 13:03:54;;;;;;;51.83;17.40;;;3.60;99.90;;;;;;4970505;28;20050;-78
2021/12/27 13:06:20;;;;;;;59.47;18.83;;;3.60;99.90;;;;;;4983983;28;20046;-78
2021/12/27 13:09:02;;;;;;;52.95;18.67;;;3.60;99.90;;;;;;4979300;28;20045;-80
2021/12/27 13:11:27;;;;;;;45.47;16.05;;;3.60;99.90;;;;;;4979906;28;20684;-79
2021/12/27 13:13:58;;;;;;;49.88;17.30;;;3.70;99.90;;;;;;4978219;28;20101;-79
2021/12/27 13:16:30;;;;;;;48.25;17.48;;;3.70;99.90;;;;;;4977528;28;20050;-78